Latest Weather Observations for Hunters Hill

IDV60801

Issued at 1:02 pm EDT Tuesday 31 March 2015 (issued every 30 minutes, with the page automatically refreshed every 10 minutes)

About weather observations | Map of weather stations | Latest weather observations for VIC | Other Formats
Station Details ID: 082139 Name: HUNTERS HILL Lat: -36.21 Lon: 147.54 Height: 981.0 m
Data from the previous 72 hours. | See also: Recent months at Hunters Hill
Date/Time
EDT
Temp
°C
App
Temp
°C
Dew
Point
Rel
Hum
%
Delta-T
°C
Wind Press
QNH
hPa
Press
MSL
hPa
Rain
since 9 am
mm
Dir
 
Spd
km/h
Gust
km/h
Spd
kts
Gust
kts
31/01:00pm 20.9 18.4 4.0 33 8.6 N 6 11 3 6 - - 0.0
31/12:30pm 21.1 19.2 5.1 35 8.3 E 4 7 2 4 - - 0.0
31/12:00pm 19.6 17.7 4.9 38 7.5 WSW 4 7 2 4 - - 0.0
31/11:30am 19.3 17.3 4.6 38 7.5 WSW 4 7 2 4 - - 0.0
31/11:00am 19.2 17.5 3.8 36 7.7 WSW 2 6 1 3 - - 0.0
31/10:30am 17.4 16.2 6.3 48 5.7 WSW 2 4 1 2 - - 0.0
31/10:00am 16.6 15.6 5.6 48 5.6 CALM 0 0 0 0 - - 0.0
31/09:30am 16.1 14.6 5.1 48 5.5 WSW 2 6 1 3 - - 0.0
31/09:00am 14.5 13.2 5.8 56 4.4 WSW 2 4 1 2 - - 0.0
31/08:30am 12.7 11.3 5.4 61 3.6 WSW 2 2 1 1 - - 0.0
31/08:00am 12.2 10.3 4.9 61 3.5 WSW 4 4 2 2 - - 0.0
31/07:30am 11.9 10.4 5.1 63 3.3 WSW 2 4 1 2 - - 0.0
31/07:00am 11.8 10.3 5.2 64 3.2 WSW 2 4 1 2 - - 0.0
31/06:30am 11.5 10.1 5.4 66 3.0 WSW 2 4 1 2 - - 0.0
31/06:00am 11.9 10.0 5.1 63 3.3 WSW 4 6 2 3 - - 0.0
31/05:30am 12.2 10.7 4.9 61 3.5 WSW 2 6 1 3 - - 0.0
31/05:00am 12.2 10.3 4.9 61 3.5 WSW 4 6 2 3 - - 0.0
31/04:30am 12.4 10.7 3.9 56 4.0 WSW 2 6 1 3 - - 0.0
31/04:00am 12.6 10.9 3.8 55 4.2 WSW 2 6 1 3 - - 0.0
31/03:30am 12.7 10.9 3.6 54 4.3 WSW 2 6 1 3 - - 0.0
31/03:00am 12.8 10.7 3.7 54 4.3 WSW 4 6 2 3 - - 0.0
31/02:30am 13.2 11.0 3.6 52 4.6 WSW 4 6 2 3 - - 0.0
31/02:00am 13.5 12.1 3.6 51 4.7 CALM 0 0 0 0 - - 0.0
31/01:30am 13.7 12.0 3.8 51 4.7 WSW 2 4 1 2 - - 0.0
31/01:00am 13.9 12.2 3.9 51 4.8 WSW 2 4 1 2 - - 0.0
31/12:30am 14.2 12.5 3.9 50 5.0 WSW 2 4 1 2 - - 0.0
31/12:00am 15.4 13.7 3.9 46 5.6 WSW 2 4 1 2 - - 0.0
 
Date/Time
EDT
Temp
°C
App
Temp
°C
Dew
Point
Rel
Hum
%
Delta-T
°C
Wind Press
QNH
hPa
Press
MSL
hPa
Rain
since 9 am
mm
Dir
 
Spd
km/h
Gust
km/h
Spd
kts
Gust
kts
30/11:30pm 15.5 14.2 4.3 47 5.5 CALM 0 0 0 0 - - 0.0
30/11:00pm 15.4 13.3 3.9 46 5.6 WSW 4 6 2 3 - - 0.0
30/10:30pm 15.9 13.8 3.7 44 5.9 WSW 4 6 2 3 - - 0.0
30/10:00pm 15.5 13.0 3.9 46 5.7 WSW 6 7 3 4 - - 0.0
30/09:30pm 15.8 13.4 4.2 46 5.7 WSW 6 7 3 4 - - 0.0
30/09:00pm 16.1 14.1 4.2 45 5.9 WSW 4 7 2 4 - - 0.0
30/08:30pm 16.3 14.2 4.0 44 6.0 WSW 4 7 2 4 - - 0.0
30/08:00pm 16.0 13.8 3.4 43 6.1 WSW 4 6 2 3 - - 0.0
30/07:30pm 16.1 13.9 3.2 42 6.2 WSW 4 7 2 4 - - 0.0
30/07:00pm 16.8 14.5 2.8 39 6.7 WSW 4 6 2 3 - - 0.0
30/06:30pm 18.0 16.1 2.7 36 7.4 WSW 2 7 1 4 - - 0.0
30/06:00pm 19.7 17.7 2.1 31 8.5 WSW 2 4 1 2 - - 0.0
30/05:30pm 20.2 17.8 2.1 30 8.8 W 4 7 2 4 - - 0.0
30/05:00pm 20.3 17.5 3.1 32 8.5 WNW 7 15 4 8 - - 0.0
30/04:30pm 19.7 16.9 2.1 31 8.5 WNW 6 15 3 8 - - 0.0
30/04:00pm 20.2 17.4 3.0 32 8.5 W 7 13 4 7 - - 0.0
30/03:30pm 19.5 16.8 2.4 32 8.3 WNW 6 7 3 4 - - 0.0
30/03:00pm 19.9 17.3 0.9 28 9.0 NW 4 11 2 6 - - 0.0
30/02:30pm 20.1 17.4 2.9 32 8.5 W 6 13 3 7 - - 0.0
30/02:00pm 19.4 16.6 2.3 32 8.3 WSW 6 13 3 7 - - 0.0
30/01:30pm 19.0 16.3 2.8 34 7.9 W 6 13 3 7 - - 0.0
30/01:00pm 18.9 16.3 3.1 35 7.8 WSW 6 11 3 6 - - 0.0
30/12:30pm 18.6 16.1 4.0 38 7.3 WNW 6 9 3 5 - - 0.0
30/12:00pm 17.1 14.4 3.8 41 6.5 NW 7 17 4 9 - - 0.0
30/11:30am 16.7 14.2 3.7 42 6.4 NW 6 15 3 8 - - 0.0
30/11:00am 17.0 15.1 5.0 45 6.0 WNW 4 7 2 4 - - 0.0
30/10:30am 16.1 14.2 5.1 48 5.5 W 4 6 2 3 - - 0.0
30/10:00am 16.1 14.6 5.1 48 5.5 W 2 6 1 3 - - 0.0
30/09:30am 15.3 14.3 5.5 52 4.9 CALM 0 0 0 0 - - 0.0
30/09:00am 13.8 12.8 5.4 57 4.2 CALM 0 0 0 0 - - 0.0
30/08:30am 12.4 11.3 4.9 60 3.6 CALM 0 0 0 0 - - 0.0
30/08:00am 11.7 9.8 4.7 62 3.4 WSW 4 6 2 3 - - 0.0
30/07:30am 11.5 9.5 4.5 62 3.4 WSW 4 6 2 3 - - 0.0
30/07:00am 11.6 9.6 4.3 61 3.5 WSW 4 6 2 3 - - 0.0
30/06:30am 11.7 10.4 4.2 60 3.6 CALM 0 0 0 0 - - 0.0
30/06:00am 11.9 10.6 4.2 59 3.7 CALM 0 0 0 0 - - 0.0
30/05:30am 12.1 10.8 3.9 57 3.9 CALM 0 4 0 2 - - 0.0
30/05:00am 12.0 10.6 3.8 57 3.9 CALM 0 0 0 0 - - 0.0
30/04:30am 11.7 10.3 3.5 57 3.8 CALM 0 2 0 1 - - 0.0
30/04:00am 12.3 10.2 4.0 57 4.0 WSW 4 7 2 4 - - 0.0
30/03:30am 12.1 10.0 3.9 57 3.9 WSW 4 6 2 3 - - 0.0
30/03:00am 12.1 10.8 3.9 57 3.9 CALM 0 0 0 0 - - 0.0
30/02:30am 12.1 10.8 3.9 57 3.9 CALM 0 0 0 0 - - 0.0
30/02:00am 12.2 10.1 3.9 57 3.9 WSW 4 7 2 4 - - 0.0
30/01:30am 13.0 10.3 3.9 54 4.4 SW 7 13 4 7 - - 0.0
30/01:00am 13.5 10.4 3.6 51 4.7 WSW 9 17 5 9 - - 0.0
30/12:30am 13.7 10.6 3.5 50 4.9 WSW 9 17 5 9 - - 0.0
30/12:00am 13.9 10.0 3.4 49 5.0 WSW 13 20 7 11 - - 0.0
 
Date/Time
EDT
Temp
°C
App
Temp
°C
Dew
Point
Rel
Hum
%
Delta-T
°C
Wind Press
QNH
hPa
Press
MSL
hPa
Rain
since 9 am
mm
Dir
 
Spd
km/h
Gust
km/h
Spd
kts
Gust
kts
29/11:30pm 14.1 10.1 3.0 47 5.3 WSW 13 22 7 12 - - 0.0
29/11:00pm 14.0 10.4 3.2 48 5.1 WSW 11 17 6 9 - - 0.0
29/10:30pm 13.9 9.9 2.8 47 5.2 WSW 13 24 7 13 - - 0.0
29/10:00pm 14.2 10.2 2.8 46 5.4 WSW 13 24 7 13 - - 0.0
29/09:30pm 14.3 10.2 2.5 45 5.5 WSW 13 24 7 13 - - 0.0
29/09:00pm 14.5 10.0 2.4 44 5.7 WSW 15 28 8 15 - - 0.0
29/08:30pm 14.2 10.5 2.5 45 5.5 W 11 19 6 10 - - 0.0
29/08:00pm 14.4 11.3 3.5 48 5.2 W 9 15 5 8 - - 0.0
29/07:30pm 14.4 11.7 3.5 48 5.2 W 7 11 4 6 - - 0.0
29/07:00pm 15.3 12.6 2.8 43 5.9 W 6 9 3 5 - - 0.0
29/06:30pm 16.3 13.9 2.3 39 6.6 WSW 4 9 2 5 - - 0.0
29/06:00pm 17.6 14.7 2.4 36 7.3 W 7 17 4 9 - - 0.0
29/05:30pm 18.1 15.2 2.4 35 7.6 WSW 7 17 4 9 - - 0.0
29/05:00pm 19.3 16.7 3.1 34 8.0 WSW 6 15 3 8 - - 0.0
29/04:30pm 19.4 16.5 2.7 33 8.2 NW 7 15 4 8 - - 0.0
29/04:00pm 19.8 17.2 3.1 33 8.3 WNW 6 13 3 7 - - 0.0
29/03:30pm 19.5 16.6 2.4 32 8.3 WNW 7 13 4 7 - - 0.0
29/03:00pm 18.6 15.7 1.2 31 8.2 WSW 6 15 3 8 - - 0.0
29/02:30pm 18.2 15.2 1.7 33 7.8 WNW 7 17 4 9 - - 0.0
29/02:00pm 18.1 15.2 2.4 35 7.6 WNW 7 17 4 9 - - 0.0
29/01:30pm 17.3 14.5 2.9 38 7.0 WNW 7 15 4 8 - - 0.0
29/01:00pm 16.8 14.4 2.0 37 7.0 WNW 4 11 2 6 - - 0.0
29/12:30pm 17.6 15.4 3.1 38 7.1 NW 4 6 2 3 - - 0.0
29/12:00pm 16.1 13.7 2.2 39 6.6 WNW 4 9 2 5 - - 0.0
29/11:30am 15.9 13.8 3.7 44 5.9 WSW 4 6 2 3 - - 0.0
29/11:00am 14.6 12.3 2.8 45 5.6 WSW 4 11 2 6 - - 0.0
29/10:30am 13.8 12.1 3.9 51 4.8 WNW 2 4 1 2 - - 0.0
29/10:00am 12.9 10.6 2.5 49 4.8 W 4 7 2 4 - - 0.0
29/09:30am 12.9 10.9 2.2 48 4.9 W 2 6 1 3 - - 0.0
29/09:00am 12.0 9.9 1.6 49 4.7 W 2 4 1 2 - - 0.0
29/08:30am 10.2 8.5 1.6 55 3.8 CALM 0 0 0 0 - - 0.0
29/08:00am 10.2 8.0 0.8 52 4.1 W 2 4 1 2 - - 0.0
29/07:30am 10.4 8.1 0.7 51 4.2 W 2 4 1 2 - - 0.0
29/07:00am 9.8 7.5 0.7 53 3.9 W 2 2 1 1 - - 0.0
29/06:30am 9.4 6.9 1.8 59 3.4 W 4 4 2 2 - - 0.0
29/06:00am 9.4 7.2 1.3 57 3.5 W 2 4 1 2 - - 0.0
29/05:30am 9.7 7.8 0.6 53 3.9 CALM 0 0 0 0 - - 0.0
29/05:00am 10.3 8.3 -0.2 48 4.5 CALM 0 2 0 1 - - 0.0
29/04:30am 10.4 8.1 0.4 50 4.3 W 2 6 1 3 - - 0.0
29/04:00am 10.4 7.3 0.4 50 4.3 W 6 7 3 4 - - 0.0
29/03:30am 10.5 7.7 -0.6 46 4.7 W 4 7 2 4 - - 0.0
29/03:00am 10.7 7.4 -1.0 44 4.9 W 6 7 3 4 - - 0.0
29/02:30am 10.9 7.6 -1.5 42 5.2 W 6 9 3 5 - - 0.0
29/02:00am 11.2 7.8 -0.9 43 5.1 W 7 13 4 7 - - 0.0
29/01:30am 11.1 7.8 0.2 47 4.7 WNW 7 9 4 5 - - 0.0
29/01:00am 10.9 7.9 0.6 49 4.5 W 6 11 3 6 - - 0.0
29/12:30am 11.2 8.2 0.6 48 4.6 W 6 7 3 4 - - 0.0
29/12:00am 11.8 9.2 1.2 48 4.7 W 4 6 2 3 - - 0.0
 
Date/Time
EDT
Temp
°C
App
Temp
°C
Dew
Point
Rel
Hum
%
Delta-T
°C
Wind Press
QNH
hPa
Press
MSL
hPa
Rain
since 9 am
mm
Dir
 
Spd
km/h
Gust
km/h
Spd
kts
Gust
kts
28/11:30pm 11.9 9.3 1.0 47 4.8 W 4 6 2 3 - - 0.0
28/11:00pm 12.4 9.7 0.5 44 5.3 W 4 6 2 3 - - 0.0
28/10:30pm 12.3 10.0 0.7 45 5.1 W 2 2 1 1 - - 0.0
28/10:00pm 12.5 10.2 0.6 44 5.3 W 2 4 1 2 - - 0.0
28/09:30pm 12.2 9.5 0.6 45 5.1 W 4 6 2 3 - - 0.0
28/09:00pm 12.3 9.2 0.1 43 5.3 W 6 7 3 4 - - 0.0
28/08:30pm 12.4 9.7 0.5 44 5.3 W 4 6 2 3 - - 0.0
28/08:00pm 12.2 9.2 0.9 46 5.0 W 6 9 3 5 - - 0.0
28/07:30pm 12.6 9.7 1.3 46 5.1 W 6 9 3 5 - - 0.0
28/07:00pm 13.4 10.5 1.7 45 5.4 W 6 9 3 5 - - 0.0
28/06:30pm 14.7 11.8 1.6 41 6.0 W 6 9 3 5 - - 0.0
28/06:00pm 15.0 12.6 2.2 42 6.0 W 4 6 2 3 - - 0.0
28/05:30pm 15.6 12.7 1.4 38 6.6 WNW 6 9 3 5 - - 0.0
28/05:00pm 17.0 14.3 2.6 38 6.9 WNW 6 11 3 6 - - 0.0
28/04:30pm 17.1 14.7 2.3 37 7.1 W 4 6 2 3 - - 0.0
28/04:00pm 17.2 14.3 2.4 37 7.1 NW 7 13 4 7 - - 0.0
28/03:30pm 16.9 13.9 1.8 36 7.1 NW 7 17 4 9 - - 0.0
28/03:00pm 16.5 14.1 2.2 38 6.8 W 4 7 2 4 - - 0.0
28/02:30pm 16.3 13.6 2.7 40 6.5 WNW 6 11 3 6 - - 0.0
28/02:00pm 15.8 13.6 3.3 43 6.0 WSW 4 9 2 5 - - 0.0
28/01:30pm 15.7 13.1 3.2 43 6.0 NW 6 13 3 7 - - 0.0

Other Formats:

Comma delimited format used in spreadsheet applications
http://www.bom.gov.au/fwo/IDV60801/IDV60801.94878.axf

JavaScript Object Notation format (JSON) in row-major order
http://www.bom.gov.au/fwo/IDV60801/IDV60801.94878.json